Forside
METAR-TAF:

METAR-TAF

Lufthavne :

Camdenton, Missouri, USA

Breddekreds: 37-58-26N, længdekreds: 092-41-28W, højde: 324 m

Aktuelle vejr

Denne rapport blev lavet for 35 minutter siden, kl. 11:35 UTC
Vind 13 kt fra sydøst
Temperatur 3°C
Fugtighed 75%
Tryk 1013 hPa
Sigt: 16.1 km
Overskyet i en højde af 3100 ft

METAR: KOZS 221135Z AUTO 13013KT 10SM OVC031 03/M01 A2990 RMK AO2

Tid: 06:10 (12:10 UTC)


TAF: fraværende

Vejrobservationer og prognoser fra mere end 4000 lufthavne (METAR og TAF).

De gule og røde prikker repræsenterer de meteorologiske stationer.

Flyt musen over at se navnet på stationen.

Så klik over at se vejr observationer og prognoser.

At skifte det kort: Klik på de grønne knapper med et sort kors for at zoome ind; på den grønne knap med en bindestreg for at zoome ud; eller på de grønne pile for tilstødende kort.


METAR-TAF: